sensor_id;sensor_type;location;lat;lon;timestamp;temperature;humidity
66610;DHT22;53468;48.276;14.416;2024-03-22T00:05:01;10.40;91.70
66610;DHT22;53468;48.276;14.416;2024-03-22T00:10:04;10.40;91.60
66610;DHT22;53468;48.276;14.416;2024-03-22T00:15:08;10.30;91.60
66610;DHT22;53468;48.276;14.416;2024-03-22T00:20:11;10.40;91.70
66610;DHT22;53468;48.276;14.416;2024-03-22T00:25:13;10.40;91.50
66610;DHT22;53468;48.276;14.416;2024-03-22T00:30:16;10.40;91.60
66610;DHT22;53468;48.276;14.416;2024-03-22T00:35:19;10.40;91.50
66610;DHT22;53468;48.276;14.416;2024-03-22T00:40:21;10.30;91.40
66610;DHT22;53468;48.276;14.416;2024-03-22T00:45:26;10.30;91.40
66610;DHT22;53468;48.276;14.416;2024-03-22T00:50:28;10.30;91.70
66610;DHT22;53468;48.276;14.416;2024-03-22T00:55:30;10.30;91.60
66610;DHT22;53468;48.276;14.416;2024-03-22T01:00:34;10.30;91.70
66610;DHT22;53468;48.276;14.416;2024-03-22T01:05:37;10.20;91.80
66610;DHT22;53468;48.276;14.416;2024-03-22T01:10:40;10.10;92.00
66610;DHT22;53468;48.276;14.416;2024-03-22T01:15:44;10.00;91.80
66610;DHT22;53468;48.276;14.416;2024-03-22T01:20:46;9.80;91.90
66610;DHT22;53468;48.276;14.416;2024-03-22T01:25:48;9.80;91.90
66610;DHT22;53468;48.276;14.416;2024-03-22T01:30:52;9.70;92.00
66610;DHT22;53468;48.276;14.416;2024-03-22T01:35:54;9.50;91.90
66610;DHT22;53468;48.276;14.416;2024-03-22T01:40:56;9.40;92.20
66610;DHT22;53468;48.276;14.416;2024-03-22T01:46:00;9.20;92.10
66610;DHT22;53468;48.276;14.416;2024-03-22T01:51:04;9.00;92.10
66610;DHT22;53468;48.276;14.416;2024-03-22T01:56:07;8.80;92.00
66610;DHT22;53468;48.276;14.416;2024-03-22T02:01:11;8.70;92.20
66610;DHT22;53468;48.276;14.416;2024-03-22T02:06:14;8.50;92.00
66610;DHT22;53468;48.276;14.416;2024-03-22T02:11:16;8.40;92.30
66610;DHT22;53468;48.276;14.416;2024-03-22T02:16:20;8.30;93.00
66610;DHT22;53468;48.276;14.416;2024-03-22T02:21:23;8.20;92.90
66610;DHT22;53468;48.276;14.416;2024-03-22T02:26:26;8.00;93.00
66610;DHT22;53468;48.276;14.416;2024-03-22T02:31:28;7.90;93.20
66610;DHT22;53468;48.276;14.416;2024-03-22T02:36:31;7.90;93.60
66610;DHT22;53468;48.276;14.416;2024-03-22T02:41:34;7.80;94.00
66610;DHT22;53468;48.276;14.416;2024-03-22T02:46:36;7.80;93.70
66610;DHT22;53468;48.276;14.416;2024-03-22T02:51:39;7.70;93.70
66610;DHT22;53468;48.276;14.416;2024-03-22T02:56:42;7.60;93.80
66610;DHT22;53468;48.276;14.416;2024-03-22T03:01:44;7.60;94.00
66610;DHT22;53468;48.276;14.416;2024-03-22T03:06:47;7.60;94.10
66610;DHT22;53468;48.276;14.416;2024-03-22T03:11:50;7.50;94.00
66610;DHT22;53468;48.276;14.416;2024-03-22T03:16:52;7.40;94.00
66610;DHT22;53468;48.276;14.416;2024-03-22T03:21:54;7.30;94.00
66610;DHT22;53468;48.276;14.416;2024-03-22T03:26:58;7.20;94.10
66610;DHT22;53468;48.276;14.416;2024-03-22T03:32:01;7.10;93.90
66610;DHT22;53468;48.276;14.416;2024-03-22T03:37:03;7.00;93.30
66610;DHT22;53468;48.276;14.416;2024-03-22T03:42:07;7.00;94.20
66610;DHT22;53468;48.276;14.416;2024-03-22T03:47:09;6.90;93.80
66610;DHT22;53468;48.276;14.416;2024-03-22T03:52:11;6.80;94.20
66610;DHT22;53468;48.276;14.416;2024-03-22T03:57:15;6.70;93.90
66610;DHT22;53468;48.276;14.416;2024-03-22T04:02:17;6.70;94.00
66610;DHT22;53468;48.276;14.416;2024-03-22T04:07:19;6.70;94.50
66610;DHT22;53468;48.276;14.416;2024-03-22T04:12:23;6.70;94.40
66610;DHT22;53468;48.276;14.416;2024-03-22T04:17:25;6.70;94.70
66610;DHT22;53468;48.276;14.416;2024-03-22T04:22:27;6.70;94.90
66610;DHT22;53468;48.276;14.416;2024-03-22T04:27:31;6.70;95.20
66610;DHT22;53468;48.276;14.416;2024-03-22T04:32:33;6.80;95.20
66610;DHT22;53468;48.276;14.416;2024-03-22T04:37:35;6.80;94.60
66610;DHT22;53468;48.276;14.416;2024-03-22T04:42:39;6.80;94.60
66610;DHT22;53468;48.276;14.416;2024-03-22T04:47:41;6.80;94.90
66610;DHT22;53468;48.276;14.416;2024-03-22T04:52:45;6.90;95.10
66610;DHT22;53468;48.276;14.416;2024-03-22T04:57:49;6.90;94.80
66610;DHT22;53468;48.276;14.416;2024-03-22T05:02:51;6.80;94.60
66610;DHT22;53468;48.276;14.416;2024-03-22T05:07:53;6.80;94.40
66610;DHT22;53468;48.276;14.416;2024-03-22T05:12:57;6.80;94.70
66610;DHT22;53468;48.276;14.416;2024-03-22T05:18:00;6.70;94.60
66610;DHT22;53468;48.276;14.416;2024-03-22T05:23:02;6.70;94.20
66610;DHT22;53468;48.276;14.416;2024-03-22T05:28:06;6.50;93.90
66610;DHT22;53468;48.276;14.416;2024-03-22T05:33:08;6.60;94.30
66610;DHT22;53468;48.276;14.416;2024-03-22T05:38:10;6.60;95.00
66610;DHT22;53468;48.276;14.416;2024-03-22T05:43:13;6.70;95.10
66610;DHT22;53468;48.276;14.416;2024-03-22T05:48:16;6.80;94.80
66610;DHT22;53468;48.276;14.416;2024-03-22T05:53:18;6.90;94.90
66610;DHT22;53468;48.276;14.416;2024-03-22T05:58:21;7.10;95.20
66610;DHT22;53468;48.276;14.416;2024-03-22T06:03:23;7.20;95.10
66610;DHT22;53468;48.276;14.416;2024-03-22T06:08:26;7.40;95.30
66610;DHT22;53468;48.276;14.416;2024-03-22T06:13:30;7.50;95.20
66610;DHT22;53468;48.276;14.416;2024-03-22T06:18:33;7.80;94.90
66610;DHT22;53468;48.276;14.416;2024-03-22T06:23:35;8.00;94.80
66610;DHT22;53468;48.276;14.416;2024-03-22T06:28:38;8.10;94.40
66610;DHT22;53468;48.276;14.416;2024-03-22T06:33:40;8.20;94.50
66610;DHT22;53468;48.276;14.416;2024-03-22T06:38:43;8.30;94.20
66610;DHT22;53468;48.276;14.416;2024-03-22T06:43:47;8.30;94.10
66610;DHT22;53468;48.276;14.416;2024-03-22T06:48:49;8.50;93.90
66610;DHT22;53468;48.276;14.416;2024-03-22T06:53:51;8.60;93.70
66610;DHT22;53468;48.276;14.416;2024-03-22T06:58:56;8.70;93.40
66610;DHT22;53468;48.276;14.416;2024-03-22T07:03:59;8.80;93.30
66610;DHT22;53468;48.276;14.416;2024-03-22T07:09:01;9.00;93.00
66610;DHT22;53468;48.276;14.416;2024-03-22T07:14:05;9.10;93.00
66610;DHT22;53468;48.276;14.416;2024-03-22T07:19:07;9.20;93.00
66610;DHT22;53468;48.276;14.416;2024-03-22T07:24:09;9.40;92.30
66610;DHT22;53468;48.276;14.416;2024-03-22T07:29:13;9.50;92.40
66610;DHT22;53468;48.276;14.416;2024-03-22T07:34:15;9.70;92.10
66610;DHT22;53468;48.276;14.416;2024-03-22T07:39:17;9.80;91.40
66610;DHT22;53468;48.276;14.416;2024-03-22T07:44:21;10.00;91.40
66610;DHT22;53468;48.276;14.416;2024-03-22T07:49:24;10.10;91.10
66610;DHT22;53468;48.276;14.416;2024-03-22T07:54:27;10.30;90.50
66610;DHT22;53468;48.276;14.416;2024-03-22T07:59:32;10.40;89.70
66610;DHT22;53468;48.276;14.416;2024-03-22T08:04:34;10.60;89.00
66610;DHT22;53468;48.276;14.416;2024-03-22T08:09:36;10.70;88.80
66610;DHT22;53468;48.276;14.416;2024-03-22T08:14:40;10.90;88.60
66610;DHT22;53468;48.276;14.416;2024-03-22T08:19:42;11.20;88.30
66610;DHT22;53468;48.276;14.416;2024-03-22T08:24:45;11.40;89.30
66610;DHT22;53468;48.276;14.416;2024-03-22T08:29:49;11.60;84.50
66610;DHT22;53468;48.276;14.416;2024-03-22T08:34:51;12.00;84.80
66610;DHT22;53468;48.276;14.416;2024-03-22T08:39:53;12.30;79.10
66610;DHT22;53468;48.276;14.416;2024-03-22T08:44:57;12.30;78.20
66610;DHT22;53468;48.276;14.416;2024-03-22T08:49:59;12.50;79.40
66610;DHT22;53468;48.276;14.416;2024-03-22T08:55:02;13.00;79.50
66610;DHT22;53468;48.276;14.416;2024-03-22T09:00:10;13.40;79.30
66610;DHT22;53468;48.276;14.416;2024-03-22T09:05:14;13.90;75.30
66610;DHT22;53468;48.276;14.416;2024-03-22T09:10:19;14.00;73.20
66610;DHT22;53468;48.276;14.416;2024-03-22T09:15:24;14.30;74.00
66610;DHT22;53468;48.276;14.416;2024-03-22T09:20:28;14.70;72.80
66610;DHT22;53468;48.276;14.416;2024-03-22T09:25:45;15.00;74.40
66610;DHT22;53468;48.276;14.416;2024-03-22T09:30:55;15.10;70.40
66610;DHT22;53468;48.276;14.416;2024-03-22T09:36:16;15.30;71.00
66610;DHT22;53468;48.276;14.416;2024-03-22T09:41:36;15.60;67.90
66610;DHT22;53468;48.276;14.416;2024-03-22T09:47:07;15.80;64.40
66610;DHT22;53468;48.276;14.416;2024-03-22T09:54:45;15.80;64.60
66610;DHT22;53468;48.276;14.416;2024-03-22T09:59:59;15.80;61.40
66610;DHT22;53468;48.276;14.416;2024-03-22T10:05:03;15.60;63.90
66610;DHT22;53468;48.276;14.416;2024-03-22T10:10:07;15.80;65.60
66610;DHT22;53468;48.276;14.416;2024-03-22T10:15:09;15.90;67.30
66610;DHT22;53468;48.276;14.416;2024-03-22T10:20:14;16.20;62.10
66610;DHT22;53468;48.276;14.416;2024-03-22T10:25:18;16.10;61.90
66610;DHT22;53468;48.276;14.416;2024-03-22T10:30:27;16.20;61.00
66610;DHT22;53468;48.276;14.416;2024-03-22T10:35:32;16.10;60.20
66610;DHT22;53468;48.276;14.416;2024-03-22T10:40:36;16.20;60.30
66610;DHT22;53468;48.276;14.416;2024-03-22T10:45:40;16.10;61.20
66610;DHT22;53468;48.276;14.416;2024-03-22T10:56:00;16.30;60.40
66610;DHT22;53468;48.276;14.416;2024-03-22T11:01:03;16.50;61.00
66610;DHT22;53468;48.276;14.416;2024-03-22T11:06:07;16.60;58.40
66610;DHT22;53468;48.276;14.416;2024-03-22T11:11:11;16.40;57.70
66610;DHT22;53468;48.276;14.416;2024-03-22T11:16:14;16.80;60.30
66610;DHT22;53468;48.276;14.416;2024-03-22T11:21:17;16.90;57.60
66610;DHT22;53468;48.276;14.416;2024-03-22T11:26:21;17.00;55.10
66610;DHT22;53468;48.276;14.416;2024-03-22T11:36:35;17.20;55.30
66610;DHT22;53468;48.276;14.416;2024-03-22T11:52:01;17.10;54.00
66610;DHT22;53468;48.276;14.416;2024-03-22T11:57:05;17.00;54.70
66610;DHT22;53468;48.276;14.416;2024-03-22T12:07:25;17.00;51.50
66610;DHT22;53468;48.276;14.416;2024-03-22T12:12:28;16.90;53.10
66610;DHT22;53468;48.276;14.416;2024-03-22T12:17:30;17.10;53.40
66610;DHT22;53468;48.276;14.416;2024-03-22T12:22:34;17.20;51.50
66610;DHT22;53468;48.276;14.416;2024-03-22T12:27:36;17.10;52.30
66610;DHT22;53468;48.276;14.416;2024-03-22T12:32:38;17.20;52.30
66610;DHT22;53468;48.276;14.416;2024-03-22T12:37:42;17.10;54.20
66610;DHT22;53468;48.276;14.416;2024-03-22T12:42:44;17.00;51.50
66610;DHT22;53468;48.276;14.416;2024-03-22T12:47:47;17.10;51.60
66610;DHT22;53468;48.276;14.416;2024-03-22T12:52:50;17.10;53.80
66610;DHT22;53468;48.276;14.416;2024-03-22T12:57:52;17.00;51.70
66610;DHT22;53468;48.276;14.416;2024-03-22T13:02:54;16.80;50.90
66610;DHT22;53468;48.276;14.416;2024-03-22T13:07:58;16.80;52.60
66610;DHT22;53468;48.276;14.416;2024-03-22T13:13:00;16.80;51.00
66610;DHT22;53468;48.276;14.416;2024-03-22T13:18:02;16.80;51.30
66610;DHT22;53468;48.276;14.416;2024-03-22T13:23:06;16.70;50.80
66610;DHT22;53468;48.276;14.416;2024-03-22T13:28:09;16.90;51.10
66610;DHT22;53468;48.276;14.416;2024-03-22T13:33:11;16.80;55.30
66610;DHT22;53468;48.276;14.416;2024-03-22T13:38:14;16.90;54.30
66610;DHT22;53468;48.276;14.416;2024-03-22T13:43:17;16.90;53.20
66610;DHT22;53468;48.276;14.416;2024-03-22T13:48:20;16.90;52.20
66610;DHT22;53468;48.276;14.416;2024-03-22T13:53:27;16.80;54.00
66610;DHT22;53468;48.276;14.416;2024-03-22T13:58:29;16.70;54.70
66610;DHT22;53468;48.276;14.416;2024-03-22T14:03:31;16.70;55.00
66610;DHT22;53468;48.276;14.416;2024-03-22T14:08:35;16.70;54.40
66610;DHT22;53468;48.276;14.416;2024-03-22T14:13:37;16.60;55.30
66610;DHT22;53468;48.276;14.416;2024-03-22T14:18:39;16.60;56.20
66610;DHT22;53468;48.276;14.416;2024-03-22T14:23:43;16.60;55.90
66610;DHT22;53468;48.276;14.416;2024-03-22T14:28:45;16.50;56.80
66610;DHT22;53468;48.276;14.416;2024-03-22T14:33:48;16.60;57.30
66610;DHT22;53468;48.276;14.416;2024-03-22T14:38:51;16.50;57.70
66610;DHT22;53468;48.276;14.416;2024-03-22T14:43:54;16.50;56.90
66610;DHT22;53468;48.276;14.416;2024-03-22T14:48:56;16.50;58.40
66610;DHT22;53468;48.276;14.416;2024-03-22T14:54:01;16.50;59.20
66610;DHT22;53468;48.276;14.416;2024-03-22T14:59:05;16.60;59.40
66610;DHT22;53468;48.276;14.416;2024-03-22T15:04:07;16.60;58.80
66610;DHT22;53468;48.276;14.416;2024-03-22T15:09:11;16.60;61.10
66610;DHT22;53468;48.276;14.416;2024-03-22T15:14:14;16.60;58.40
66610;DHT22;53468;48.276;14.416;2024-03-22T15:19:16;16.60;59.70
66610;DHT22;53468;48.276;14.416;2024-03-22T15:24:20;16.60;60.80
66610;DHT22;53468;48.276;14.416;2024-03-22T15:29:22;16.60;59.10
66610;DHT22;53468;48.276;14.416;2024-03-22T15:34:24;16.60;59.60
66610;DHT22;53468;48.276;14.416;2024-03-22T15:39:28;16.60;59.10
66610;DHT22;53468;48.276;14.416;2024-03-22T15:44:30;16.60;60.00
66610;DHT22;53468;48.276;14.416;2024-03-22T15:49:32;16.50;60.60
66610;DHT22;53468;48.276;14.416;2024-03-22T15:54:36;16.40;61.30
66610;DHT22;53468;48.276;14.416;2024-03-22T15:59:38;16.40;61.20
66610;DHT22;53468;48.276;14.416;2024-03-22T16:04:40;16.30;61.60
66610;DHT22;53468;48.276;14.416;2024-03-22T16:25:16;16.20;61.90
66610;DHT22;53468;48.276;14.416;2024-03-22T16:35:29;16.00;62.20
66610;DHT22;53468;48.276;14.416;2024-03-22T16:45:43;15.80;62.10
66610;DHT22;53468;48.276;14.416;2024-03-22T16:50:45;15.80;62.60
66610;DHT22;53468;48.276;14.416;2024-03-22T17:06:26;15.40;64.20
66610;DHT22;53468;48.276;14.416;2024-03-22T17:16:39;15.10;65.90
66610;DHT22;53468;48.276;14.416;2024-03-22T17:21:42;14.90;66.40
66610;DHT22;53468;48.276;14.416;2024-03-22T17:31:47;14.50;68.70
66610;DHT22;53468;48.276;14.416;2024-03-22T17:41:53;14.10;70.90
66610;DHT22;53468;48.276;14.416;2024-03-22T17:46:56;13.90;73.20
66610;DHT22;53468;48.276;14.416;2024-03-22T17:51:58;13.60;74.90
66610;DHT22;53468;48.276;14.416;2024-03-22T17:57:03;13.40;74.80
66610;DHT22;53468;48.276;14.416;2024-03-22T18:02:05;13.30;75.10
66610;DHT22;53468;48.276;14.416;2024-03-22T18:07:07;13.20;75.20
66610;DHT22;53468;48.276;14.416;2024-03-22T18:12:12;13.10;76.50
66610;DHT22;53468;48.276;14.416;2024-03-22T18:17:16;13.10;75.40
66610;DHT22;53468;48.276;14.416;2024-03-22T18:22:21;13.10;76.50
66610;DHT22;53468;48.276;14.416;2024-03-22T18:27:29;12.90;77.70
66610;DHT22;53468;48.276;14.416;2024-03-22T18:32:34;12.80;77.40
66610;DHT22;53468;48.276;14.416;2024-03-22T18:37:39;12.70;77.00
66610;DHT22;53468;48.276;14.416;2024-03-22T18:42:42;12.70;79.10
66610;DHT22;53468;48.276;14.416;2024-03-22T18:47:45;12.50;80.40
66610;DHT22;53468;48.276;14.416;2024-03-22T18:52:47;12.40;79.70
66610;DHT22;53468;48.276;14.416;2024-03-22T18:57:51;12.30;78.70
66610;DHT22;53468;48.276;14.416;2024-03-22T19:02:53;12.30;79.40
66610;DHT22;53468;48.276;14.416;2024-03-22T19:07:57;12.20;79.40
66610;DHT22;53468;48.276;14.416;2024-03-22T19:13:02;12.20;79.90
66610;DHT22;53468;48.276;14.416;2024-03-22T19:18:05;12.10;80.90
66610;DHT22;53468;48.276;14.416;2024-03-22T19:23:12;12.10;80.60
66610;DHT22;53468;48.276;14.416;2024-03-22T19:28:17;12.10;80.40
66610;DHT22;53468;48.276;14.416;2024-03-22T19:33:20;12.10;81.20
66610;DHT22;53468;48.276;14.416;2024-03-22T19:38:25;11.90;82.70
66610;DHT22;53468;48.276;14.416;2024-03-22T19:49:11;11.70;83.40
66610;DHT22;53468;48.276;14.416;2024-03-22T19:54:13;11.70;82.60
66610;DHT22;53468;48.276;14.416;2024-03-22T19:59:20;11.70;83.80
66610;DHT22;53468;48.276;14.416;2024-03-22T20:04:31;11.60;84.50
66610;DHT22;53468;48.276;14.416;2024-03-22T20:09:38;11.60;85.20
66610;DHT22;53468;48.276;14.416;2024-03-22T20:14:57;11.50;85.90
66610;DHT22;53468;48.276;14.416;2024-03-22T20:20:03;11.50;85.00
66610;DHT22;53468;48.276;14.416;2024-03-22T20:25:11;11.50;84.10
66610;DHT22;53468;48.276;14.416;2024-03-22T20:30:21;11.50;84.70
66610;DHT22;53468;48.276;14.416;2024-03-22T20:35:30;11.40;84.90
